Terminal Aerodrome Forecast
Issued by NWS

Home | Current Version | Previous Version | Text Only | Print | Product List | Glossary On
Versions: 1 2 3 4 5 6 7 8 9 10 11 12 13 14
000
FTUS45 KVEF 141100
TAFEED
TAF
KEED 141136Z 1412/1512 18006KT P6SM SCT120 BKN200
     FM141900 18012KT P6SM BKN100 BKN200
     FM150400 20008KT P6SM SCT100 BKN200=

USA.gov is the U.S. government's official web portal to all federal, state and local government web resources and services.